createdAt,value
2022-12-24T00:01:10.848Z,97.34
2022-12-24T00:11:32.357Z,97.31
2022-12-24T00:21:53.736Z,97.25
2022-12-24T00:32:15.091Z,97.09
2022-12-24T00:42:36.482Z,98.01
2022-12-24T00:52:57.840Z,97.78
2022-12-24T01:03:19.269Z,98.03
2022-12-24T01:13:40.768Z,97.98
2022-12-24T01:24:02.198Z,97.72
2022-12-24T01:34:23.556Z,97.62
2022-12-24T01:44:48.018Z,97.93
2022-12-24T01:55:17.655Z,97.64
2022-12-24T02:05:42.188Z,97.92
2022-12-24T02:16:22.659Z,98.01
2022-12-24T02:26:53.326Z,97.71
2022-12-24T02:37:22.061Z,97.49
2022-12-24T02:47:44.224Z,97.45
2022-12-24T02:58:17.816Z,97.52
2022-12-24T03:08:39.639Z,97.94
2022-12-24T03:19:01.076Z,97.47
2022-12-24T03:29:22.524Z,97.49
2022-12-24T03:39:43.872Z,96.93
2022-12-24T03:50:05.908Z,97.26
2022-12-24T04:00:27.274Z,97.03
2022-12-24T04:10:48.641Z,97.54
2022-12-24T04:21:10.289Z,97.57
2022-12-24T04:31:31.694Z,96.79
2022-12-24T04:41:53.126Z,97.05
2022-12-24T04:52:14.466Z,97.37
2022-12-24T05:02:35.993Z,97.85
2022-12-24T05:12:57.518Z,96.92
2022-12-24T05:23:38.637Z,96.54
2022-12-24T05:34:00.622Z,96.05
2022-12-24T05:44:22.004Z,95.62
2022-12-24T05:54:43.418Z,95.53
2022-12-24T06:05:05.056Z,95.02
2022-12-24T06:15:26.448Z,95.20
2022-12-24T06:25:48.269Z,94.97
2022-12-24T06:36:16.966Z,94.49
2022-12-24T06:46:39.111Z,95.02
2022-12-24T06:57:00.520Z,95.38
2022-12-24T07:07:21.869Z,95.04
2022-12-24T07:17:43.421Z,94.29
2022-12-24T07:28:04.955Z,94.04
2022-12-24T07:38:26.441Z,93.86
2022-12-24T07:48:47.812Z,93.71
2022-12-24T07:59:12.105Z,94.29
2022-12-24T08:09:34.301Z,94.70
2022-12-24T08:19:55.667Z,94.36
2022-12-24T08:30:21.076Z,94.06
2022-12-24T08:40:43.699Z,94.09
2022-12-24T08:51:08.765Z,94.87
2022-12-24T09:01:30.271Z,94.58
2022-12-24T09:11:51.787Z,94.06
2022-12-24T09:22:13.599Z,94.39
2022-12-24T09:32:34.997Z,94.60
2022-12-24T09:42:56.399Z,93.80
2022-12-24T09:53:24.933Z,93.44
2022-12-24T10:03:47.182Z,92.73
2022-12-24T10:14:08.680Z,92.08
2022-12-24T10:24:30.029Z,92.02
2022-12-24T10:34:59.308Z,91.80
2022-12-24T10:45:21.653Z,91.98
2022-12-24T10:55:43.067Z,91.41
2022-12-24T11:06:09.288Z,91.21
2022-12-24T11:16:33.291Z,91.34
2022-12-24T11:26:54.752Z,90.67
2022-12-24T11:37:21.488Z,90.57
2022-12-24T11:47:42.891Z,90.75
2022-12-24T11:58:13.471Z,92.91
2022-12-24T12:08:35.859Z,93.55
2022-12-24T12:18:59.921Z,93.04
2022-12-24T12:29:24.488Z,92.16
2022-12-24T12:39:45.890Z,90.65
2022-12-24T12:50:10.417Z,90.47
2022-12-24T13:00:39.148Z,90.67
2022-12-24T13:11:22.447Z,90.64
2022-12-24T13:21:46.230Z,89.70
2022-12-24T13:32:20.147Z,89.18
2022-12-24T13:43:04.714Z,88.27
2022-12-24T13:53:33.810Z,88.01
2022-12-24T14:03:59.436Z,88.16
2022-12-24T14:14:36.296Z,87.86
2022-12-24T14:25:10.576Z,87.28
2022-12-24T14:35:38.152Z,86.75
2022-12-24T14:46:11.133Z,87.85
2022-12-24T14:56:33.083Z,88.26
2022-12-24T15:06:57.614Z,87.77
2022-12-24T15:17:19.271Z,88.02
2022-12-24T15:27:40.772Z,87.88
2022-12-24T15:38:04.084Z,88.72
2022-12-24T15:48:31.310Z,88.85
2022-12-24T15:58:53.108Z,88.84
2022-12-24T16:09:42.443Z,87.43
2022-12-24T16:20:07.693Z,87.81
2022-12-24T16:30:29.229Z,86.02
2022-12-24T16:40:50.783Z,86.61
2022-12-24T16:51:12.337Z,86.04
2022-12-24T17:01:33.873Z,86.61
2022-12-24T17:11:55.482Z,85.89
2022-12-24T17:22:17.664Z,86.03
2022-12-24T17:32:39.626Z,86.20
2022-12-24T17:43:01.144Z,84.76
2022-12-24T17:53:22.675Z,85.79
2022-12-24T18:03:45.729Z,85.76
2022-12-24T18:14:08.161Z,86.03
2022-12-24T18:24:29.673Z,86.48
2022-12-24T18:34:51.614Z,86.81
2022-12-24T18:45:12.970Z,86.10
2022-12-24T18:55:36.127Z,87.87
2022-12-24T19:06:01.922Z,88.46
2022-12-24T19:16:23.726Z,88.63
2022-12-24T19:26:45.419Z,89.08
2022-12-24T19:37:06.989Z,89.40
2022-12-24T19:47:28.515Z,89.73
2022-12-24T19:57:52.592Z,90.00
2022-12-24T20:08:14.160Z,89.60
2022-12-24T20:18:36.086Z,90.31
2022-12-24T20:28:57.621Z,90.15
2022-12-24T20:39:19.111Z,90.66
2022-12-24T20:49:41.486Z,91.22
2022-12-24T21:00:04.462Z,90.35
2022-12-24T21:10:32.266Z,90.64
2022-12-24T21:20:55.654Z,90.55
2022-12-24T21:31:17.640Z,90.78
2022-12-24T21:41:39.348Z,91.12
2022-12-24T21:52:00.865Z,90.80
2022-12-24T22:02:28.264Z,90.18
2022-12-24T22:12:50.014Z,90.61
2022-12-24T22:23:12.980Z,90.17
2022-12-24T22:33:36.321Z,90.81
2022-12-24T22:43:57.936Z,90.33
2022-12-24T22:54:19.453Z,90.39
2022-12-24T23:04:41.374Z,90.99
2022-12-24T23:15:03.650Z,91.37
2022-12-24T23:25:25.476Z,91.28
2022-12-24T23:35:47.067Z,92.77
2022-12-24T23:46:15.560Z,92.14
2022-12-24T23:56:37.154Z,92.45
